sensor_id;sensor_type;location;lat;lon;timestamp;P1;P2;P0
64697;PMS5003;51124;53.394;-6.294;2023-04-12T00:00:09;2;2;
64697;PMS5003;51124;53.394;-6.294;2023-04-12T00:02:37;2;2;
64697;PMS5003;51124;53.394;-6.294;2023-04-12T00:05:05;3;3;
64697;PMS5003;51124;53.394;-6.294;2023-04-12T00:07:32;2;2;
64697;PMS5003;51124;53.394;-6.294;2023-04-12T00:10:00;2;2;
64697;PMS5003;51124;53.394;-6.294;2023-04-12T00:12:28;3;3;
64697;PMS5003;51124;53.394;-6.294;2023-04-12T00:14:55;3;3;
64697;PMS5003;51124;53.394;-6.294;2023-04-12T00:17:22;2;2;
64697;PMS5003;51124;53.394;-6.294;2023-04-12T00:19:50;2;2;
64697;PMS5003;51124;53.394;-6.294;2023-04-12T00:22:17;2;2;
64697;PMS5003;51124;53.394;-6.294;2023-04-12T00:24:45;4;4;
64697;PMS5003;51124;53.394;-6.294;2023-04-12T00:27:13;3;3;
64697;PMS5003;51124;53.394;-6.294;2023-04-12T00:29:40;2;2;
64697;PMS5003;51124;53.394;-6.294;2023-04-12T00:32:08;3;3;
64697;PMS5003;51124;53.394;-6.294;2023-04-12T00:34:36;3;3;
64697;PMS5003;51124;53.394;-6.294;2023-04-12T00:37:03;3;3;
64697;PMS5003;51124;53.394;-6.294;2023-04-12T00:39:31;3;3;
64697;PMS5003;51124;53.394;-6.294;2023-04-12T00:42:02;2;2;
64697;PMS5003;51124;53.394;-6.294;2023-04-12T00:44:31;6;4;
64697;PMS5003;51124;53.394;-6.294;2023-04-12T00:46:59;3;3;
64697;PMS5003;51124;53.394;-6.294;2023-04-12T00:49:28;4;4;
64697;PMS5003;51124;53.394;-6.294;2023-04-12T00:51:57;3;3;
64697;PMS5003;51124;53.394;-6.294;2023-04-12T00:54:29;4;3;
64697;PMS5003;51124;53.394;-6.294;2023-04-12T00:56:57;2;2;
64697;PMS5003;51124;53.394;-6.294;2023-04-12T00:59:26;2;2;
64697;PMS5003;51124;53.394;-6.294;2023-04-12T01:01:54;3;3;
64697;PMS5003;51124;53.394;-6.294;2023-04-12T01:04:23;3;3;
64697;PMS5003;51124;53.394;-6.294;2023-04-12T01:06:58;2;2;
64697;PMS5003;51124;53.394;-6.294;2023-04-12T01:09:26;2;2;
64697;PMS5003;51124;53.394;-6.294;2023-04-12T01:11:50;4;4;
64697;PMS5003;51124;53.394;-6.294;2023-04-12T01:14:21;6;4;
64697;PMS5003;51124;53.394;-6.294;2023-04-12T01:16:47;3;3;
64697;PMS5003;51124;53.394;-6.294;2023-04-12T01:19:26;5;3;
64697;PMS5003;51124;53.394;-6.294;2023-04-12T01:21:52;6;5;
64697;PMS5003;51124;53.394;-6.294;2023-04-12T01:24:22;3;3;
64697;PMS5003;51124;53.394;-6.294;2023-04-12T01:26:50;5;3;
64697;PMS5003;51124;53.394;-6.294;2023-04-12T01:29:20;5;3;
64697;PMS5003;51124;53.394;-6.294;2023-04-12T01:31:49;3;3;
64697;PMS5003;51124;53.394;-6.294;2023-04-12T01:34:21;4;4;
64697;PMS5003;51124;53.394;-6.294;2023-04-12T01:36:51;3;3;
64697;PMS5003;51124;53.394;-6.294;2023-04-12T01:39:19;3;3;
64697;PMS5003;51124;53.394;-6.294;2023-04-12T01:41:47;4;4;
64697;PMS5003;51124;53.394;-6.294;2023-04-12T01:44:15;3;3;
64697;PMS5003;51124;53.394;-6.294;2023-04-12T01:46:43;3;3;
64697;PMS5003;51124;53.394;-6.294;2023-04-12T01:49:12;4;4;
64697;PMS5003;51124;53.394;-6.294;2023-04-12T01:51:44;3;3;
64697;PMS5003;51124;53.394;-6.294;2023-04-12T01:54:17;4;4;
64697;PMS5003;51124;53.394;-6.294;2023-04-12T01:56:48;3;3;
64697;PMS5003;51124;53.394;-6.294;2023-04-12T01:59:20;4;4;
64697;PMS5003;51124;53.394;-6.294;2023-04-12T02:01:51;5;5;
64697;PMS5003;51124;53.394;-6.294;2023-04-12T02:04:18;3;2;
64697;PMS5003;51124;53.394;-6.294;2023-04-12T02:06:47;3;3;
64697;PMS5003;51124;53.394;-6.294;2023-04-12T02:09:15;3;3;
64697;PMS5003;51124;53.394;-6.294;2023-04-12T02:11:45;2;2;
64697;PMS5003;51124;53.394;-6.294;2023-04-12T02:14:13;3;3;
64697;PMS5003;51124;53.394;-6.294;2023-04-12T02:16:40;4;3;
64697;PMS5003;51124;53.394;-6.294;2023-04-12T02:19:07;3;3;
64697;PMS5003;51124;53.394;-6.294;2023-04-12T02:21:38;4;4;
64697;PMS5003;51124;53.394;-6.294;2023-04-12T02:24:06;5;5;
64697;PMS5003;51124;53.394;-6.294;2023-04-12T02:26:34;4;4;
64697;PMS5003;51124;53.394;-6.294;2023-04-12T02:29:01;4;3;
64697;PMS5003;51124;53.394;-6.294;2023-04-12T02:31:29;4;4;
64697;PMS5003;51124;53.394;-6.294;2023-04-12T02:33:56;5;5;
64697;PMS5003;51124;53.394;-6.294;2023-04-12T02:36:23;2;2;
64697;PMS5003;51124;53.394;-6.294;2023-04-12T02:38:51;3;3;
64697;PMS5003;51124;53.394;-6.294;2023-04-12T02:41:19;5;5;
64697;PMS5003;51124;53.394;-6.294;2023-04-12T02:43:47;4;4;
64697;PMS5003;51124;53.394;-6.294;2023-04-12T02:46:15;5;5;
64697;PMS5003;51124;53.394;-6.294;2023-04-12T02:48:44;4;4;
64697;PMS5003;51124;53.394;-6.294;2023-04-12T02:51:11;2;2;
64697;PMS5003;51124;53.394;-6.294;2023-04-12T02:53:39;3;3;
64697;PMS5003;51124;53.394;-6.294;2023-04-12T02:56:06;2;2;
64697;PMS5003;51124;53.394;-6.294;2023-04-12T02:58:34;3;3;
64697;PMS5003;51124;53.394;-6.294;2023-04-12T03:01:02;4;4;
64697;PMS5003;51124;53.394;-6.294;2023-04-12T03:03:30;5;4;
64697;PMS5003;51124;53.394;-6.294;2023-04-12T03:05:58;6;6;
64697;PMS5003;51124;53.394;-6.294;2023-04-12T03:08:26;4;4;
64697;PMS5003;51124;53.394;-6.294;2023-04-12T03:10:53;3;3;
64697;PMS5003;51124;53.394;-6.294;2023-04-12T03:13:21;5;5;
64697;PMS5003;51124;53.394;-6.294;2023-04-12T03:15:53;5;5;
64697;PMS5003;51124;53.394;-6.294;2023-04-12T03:18:22;5;5;
64697;PMS5003;51124;53.394;-6.294;2023-04-12T03:20:49;4;4;
64697;PMS5003;51124;53.394;-6.294;2023-04-12T03:23:16;6;5;
64697;PMS5003;51124;53.394;-6.294;2023-04-12T03:25:44;4;4;
64697;PMS5003;51124;53.394;-6.294;2023-04-12T03:28:11;5;5;
64697;PMS5003;51124;53.394;-6.294;2023-04-12T03:30:39;4;4;
64697;PMS5003;51124;53.394;-6.294;2023-04-12T03:33:07;3;3;
64697;PMS5003;51124;53.394;-6.294;2023-04-12T03:35:34;4;4;
64697;PMS5003;51124;53.394;-6.294;2023-04-12T03:38:02;4;4;
64697;PMS5003;51124;53.394;-6.294;2023-04-12T03:40:30;6;6;
64697;PMS5003;51124;53.394;-6.294;2023-04-12T03:42:57;4;4;
64697;PMS5003;51124;53.394;-6.294;2023-04-12T03:45:25;4;4;
64697;PMS5003;51124;53.394;-6.294;2023-04-12T03:47:53;5;5;
64697;PMS5003;51124;53.394;-6.294;2023-04-12T03:50:21;6;6;
64697;PMS5003;51124;53.394;-6.294;2023-04-12T03:52:48;7;6;
64697;PMS5003;51124;53.394;-6.294;2023-04-12T03:55:16;7;5;
64697;PMS5003;51124;53.394;-6.294;2023-04-12T03:57:44;4;4;
64697;PMS5003;51124;53.394;-6.294;2023-04-12T04:00:12;5;5;
64697;PMS5003;51124;53.394;-6.294;2023-04-12T04:02:40;5;5;
64697;PMS5003;51124;53.394;-6.294;2023-04-12T04:05:08;5;5;
64697;PMS5003;51124;53.394;-6.294;2023-04-12T04:07:36;7;5;
64697;PMS5003;51124;53.394;-6.294;2023-04-12T04:10:04;5;5;
64697;PMS5003;51124;53.394;-6.294;2023-04-12T04:12:33;7;7;
64697;PMS5003;51124;53.394;-6.294;2023-04-12T04:15:00;4;4;
64697;PMS5003;51124;53.394;-6.294;2023-04-12T04:17:29;5;5;
64697;PMS5003;51124;53.394;-6.294;2023-04-12T04:19:57;6;5;
64697;PMS5003;51124;53.394;-6.294;2023-04-12T04:22:24;5;5;
64697;PMS5003;51124;53.394;-6.294;2023-04-12T04:24:52;6;5;
64697;PMS5003;51124;53.394;-6.294;2023-04-12T04:27:20;6;6;
64697;PMS5003;51124;53.394;-6.294;2023-04-12T04:29:48;7;6;
64697;PMS5003;51124;53.394;-6.294;2023-04-12T04:32:18;7;5;
64697;PMS5003;51124;53.394;-6.294;2023-04-12T04:34:45;6;6;
64697;PMS5003;51124;53.394;-6.294;2023-04-12T04:37:14;5;5;
64697;PMS5003;51124;53.394;-6.294;2023-04-12T04:39:41;6;5;
64697;PMS5003;51124;53.394;-6.294;2023-04-12T04:42:09;6;6;
64697;PMS5003;51124;53.394;-6.294;2023-04-12T04:44:37;6;6;
64697;PMS5003;51124;53.394;-6.294;2023-04-12T04:47:04;4;4;
64697;PMS5003;51124;53.394;-6.294;2023-04-12T04:49:31;6;6;
64697;PMS5003;51124;53.394;-6.294;2023-04-12T04:51:59;6;6;
64697;PMS5003;51124;53.394;-6.294;2023-04-12T04:54:27;6;5;
64697;PMS5003;51124;53.394;-6.294;2023-04-12T04:56:54;7;6;
64697;PMS5003;51124;53.394;-6.294;2023-04-12T04:59:21;9;7;
64697;PMS5003;51124;53.394;-6.294;2023-04-12T05:01:49;6;5;
64697;PMS5003;51124;53.394;-6.294;2023-04-12T05:04:16;6;6;
64697;PMS5003;51124;53.394;-6.294;2023-04-12T05:06:44;5;4;
64697;PMS5003;51124;53.394;-6.294;2023-04-12T05:09:12;6;6;
64697;PMS5003;51124;53.394;-6.294;2023-04-12T05:11:39;8;7;
64697;PMS5003;51124;53.394;-6.294;2023-04-12T05:14:06;5;5;
64697;PMS5003;51124;53.394;-6.294;2023-04-12T05:16:34;7;7;
64697;PMS5003;51124;53.394;-6.294;2023-04-12T05:19:01;5;5;
64697;PMS5003;51124;53.394;-6.294;2023-04-12T05:21:28;4;4;
64697;PMS5003;51124;53.394;-6.294;2023-04-12T05:23:56;5;5;
64697;PMS5003;51124;53.394;-6.294;2023-04-12T05:26:24;6;5;
64697;PMS5003;51124;53.394;-6.294;2023-04-12T05:28:51;7;6;
64697;PMS5003;51124;53.394;-6.294;2023-04-12T05:31:18;6;6;
64697;PMS5003;51124;53.394;-6.294;2023-04-12T05:33:46;5;5;
64697;PMS5003;51124;53.394;-6.294;2023-04-12T05:36:13;4;4;
64697;PMS5003;51124;53.394;-6.294;2023-04-12T05:38:40;7;6;
64697;PMS5003;51124;53.394;-6.294;2023-04-12T05:41:07;6;6;
64697;PMS5003;51124;53.394;-6.294;2023-04-12T05:43:35;6;6;
64697;PMS5003;51124;53.394;-6.294;2023-04-12T05:46:02;6;6;
64697;PMS5003;51124;53.394;-6.294;2023-04-12T05:48:30;5;5;
64697;PMS5003;51124;53.394;-6.294;2023-04-12T05:50:57;6;5;
64697;PMS5003;51124;53.394;-6.294;2023-04-12T05:53:26;5;5;
64697;PMS5003;51124;53.394;-6.294;2023-04-12T05:55:53;6;5;
64697;PMS5003;51124;53.394;-6.294;2023-04-12T05:58:20;5;5;
64697;PMS5003;51124;53.394;-6.294;2023-04-12T06:00:47;6;5;
64697;PMS5003;51124;53.394;-6.294;2023-04-12T06:03:15;4;4;
64697;PMS5003;51124;53.394;-6.294;2023-04-12T06:05:42;5;4;
64697;PMS5003;51124;53.394;-6.294;2023-04-12T06:08:10;6;6;
64697;PMS5003;51124;53.394;-6.294;2023-04-12T06:10:37;6;6;
64697;PMS5003;51124;53.394;-6.294;2023-04-12T06:13:05;8;8;
64697;PMS5003;51124;53.394;-6.294;2023-04-12T06:15:32;7;7;
64697;PMS5003;51124;53.394;-6.294;2023-04-12T06:17:59;6;6;
64697;PMS5003;51124;53.394;-6.294;2023-04-12T06:20:27;5;4;
64697;PMS5003;51124;53.394;-6.294;2023-04-12T06:22:54;7;6;
64697;PMS5003;51124;53.394;-6.294;2023-04-12T06:25:22;6;5;
64697;PMS5003;51124;53.394;-6.294;2023-04-12T06:27:49;7;5;
64697;PMS5003;51124;53.394;-6.294;2023-04-12T06:30:17;8;7;
64697;PMS5003;51124;53.394;-6.294;2023-04-12T06:32:44;4;4;
64697;PMS5003;51124;53.394;-6.294;2023-04-12T06:35:12;4;4;
64697;PMS5003;51124;53.394;-6.294;2023-04-12T06:37:39;5;5;
64697;PMS5003;51124;53.394;-6.294;2023-04-12T06:40:07;6;5;
64697;PMS5003;51124;53.394;-6.294;2023-04-12T06:42:35;6;5;
64697;PMS5003;51124;53.394;-6.294;2023-04-12T06:45:03;6;6;
64697;PMS5003;51124;53.394;-6.294;2023-04-12T06:47:31;7;6;
64697;PMS5003;51124;53.394;-6.294;2023-04-12T06:49:59;5;5;
64697;PMS5003;51124;53.394;-6.294;2023-04-12T06:52:27;7;6;
64697;PMS5003;51124;53.394;-6.294;2023-04-12T06:54:55;5;5;
64697;PMS5003;51124;53.394;-6.294;2023-04-12T06:57:23;4;4;
64697;PMS5003;51124;53.394;-6.294;2023-04-12T06:59:51;5;5;
64697;PMS5003;51124;53.394;-6.294;2023-04-12T07:02:19;8;6;
64697;PMS5003;51124;53.394;-6.294;2023-04-12T07:04:50;5;5;
64697;PMS5003;51124;53.394;-6.294;2023-04-12T07:07:18;6;6;
64697;PMS5003;51124;53.394;-6.294;2023-04-12T07:09:46;6;6;
64697;PMS5003;51124;53.394;-6.294;2023-04-12T07:12:13;4;4;
64697;PMS5003;51124;53.394;-6.294;2023-04-12T07:14:41;6;6;
64697;PMS5003;51124;53.394;-6.294;2023-04-12T07:17:09;6;6;
64697;PMS5003;51124;53.394;-6.294;2023-04-12T07:19:38;6;6;
64697;PMS5003;51124;53.394;-6.294;2023-04-12T07:22:06;6;4;
64697;PMS5003;51124;53.394;-6.294;2023-04-12T07:24:34;7;7;
64697;PMS5003;51124;53.394;-6.294;2023-04-12T07:27:02;5;5;
64697;PMS5003;51124;53.394;-6.294;2023-04-12T07:29:30;5;5;
64697;PMS5003;51124;53.394;-6.294;2023-04-12T07:31:58;6;6;
64697;PMS5003;51124;53.394;-6.294;2023-04-12T07:34:27;6;6;
64697;PMS5003;51124;53.394;-6.294;2023-04-12T07:36:56;5;5;
64697;PMS5003;51124;53.394;-6.294;2023-04-12T07:39:23;6;6;
64697;PMS5003;51124;53.394;-6.294;2023-04-12T07:41:51;5;5;
64697;PMS5003;51124;53.394;-6.294;2023-04-12T07:44:19;7;7;
64697;PMS5003;51124;53.394;-6.294;2023-04-12T07:46:47;7;6;
64697;PMS5003;51124;53.394;-6.294;2023-04-12T07:49:15;5;5;
64697;PMS5003;51124;53.394;-6.294;2023-04-12T07:51:42;7;5;
64697;PMS5003;51124;53.394;-6.294;2023-04-12T07:54:10;5;5;
64697;PMS5003;51124;53.394;-6.294;2023-04-12T07:56:37;5;5;
64697;PMS5003;51124;53.394;-6.294;2023-04-12T07:59:05;5;5;
64697;PMS5003;51124;53.394;-6.294;2023-04-12T08:01:36;5;5;
64697;PMS5003;51124;53.394;-6.294;2023-04-12T08:04:02;4;4;
64697;PMS5003;51124;53.394;-6.294;2023-04-12T08:06:29;5;5;
64697;PMS5003;51124;53.394;-6.294;2023-04-12T08:08:57;5;5;
64697;PMS5003;51124;53.394;-6.294;2023-04-12T08:11:24;5;5;
64697;PMS5003;51124;53.394;-6.294;2023-04-12T08:13:53;4;4;
64697;PMS5003;51124;53.394;-6.294;2023-04-12T08:16:21;7;5;
64697;PMS5003;51124;53.394;-6.294;2023-04-12T08:18:52;4;4;
64697;PMS5003;51124;53.394;-6.294;2023-04-12T08:21:19;4;4;
64697;PMS5003;51124;53.394;-6.294;2023-04-12T08:23:47;4;4;
64697;PMS5003;51124;53.394;-6.294;2023-04-12T08:26:15;5;5;
64697;PMS5003;51124;53.394;-6.294;2023-04-12T08:28:43;4;4;
64697;PMS5003;51124;53.394;-6.294;2023-04-12T08:31:10;6;4;
64697;PMS5003;51124;53.394;-6.294;2023-04-12T08:33:38;3;3;
64697;PMS5003;51124;53.394;-6.294;2023-04-12T08:36:06;4;4;
64697;PMS5003;51124;53.394;-6.294;2023-04-12T08:38:35;7;7;
64697;PMS5003;51124;53.394;-6.294;2023-04-12T08:41:03;4;4;
64697;PMS5003;51124;53.394;-6.294;2023-04-12T08:43:31;3;3;
64697;PMS5003;51124;53.394;-6.294;2023-04-12T08:46:00;6;4;
64697;PMS5003;51124;53.394;-6.294;2023-04-12T08:48:28;5;5;
64697;PMS5003;51124;53.394;-6.294;2023-04-12T08:50:56;4;4;
64697;PMS5003;51124;53.394;-6.294;2023-04-12T08:53:24;3;3;
64697;PMS5003;51124;53.394;-6.294;2023-04-12T08:55:52;4;4;
64697;PMS5003;51124;53.394;-6.294;2023-04-12T08:58:19;5;4;
64697;PMS5003;51124;53.394;-6.294;2023-04-12T09:00:47;5;5;
64697;PMS5003;51124;53.394;-6.294;2023-04-12T09:03:15;6;5;
64697;PMS5003;51124;53.394;-6.294;2023-04-12T09:05:43;5;5;
64697;PMS5003;51124;53.394;-6.294;2023-04-12T09:08:10;5;5;
64697;PMS5003;51124;53.394;-6.294;2023-04-12T09:10:37;5;5;
64697;PMS5003;51124;53.394;-6.294;2023-04-12T09:13:05;3;3;
64697;PMS5003;51124;53.394;-6.294;2023-04-12T09:15:33;5;5;
64697;PMS5003;51124;53.394;-6.294;2023-04-12T09:18:02;6;5;
64697;PMS5003;51124;53.394;-6.294;2023-04-12T09:20:31;4;4;
64697;PMS5003;51124;53.394;-6.294;2023-04-12T09:22:58;5;5;
64697;PMS5003;51124;53.394;-6.294;2023-04-12T09:23:26;4;4;
64697;PMS5003;51124;53.394;-6.294;2023-04-12T09:25:53;4;4;
64697;PMS5003;51124;53.394;-6.294;2023-04-12T09:28:22;4;4;
64697;PMS5003;51124;53.394;-6.294;2023-04-12T09:30:54;4;4;
64697;PMS5003;51124;53.394;-6.294;2023-04-12T09:33:32;4;4;
64697;PMS5003;51124;53.394;-6.294;2023-04-12T09:36:16;5;5;
64697;PMS5003;51124;53.394;-6.294;2023-04-12T09:38:57;5;5;
64697;PMS5003;51124;53.394;-6.294;2023-04-12T09:41:15;5;3;
64697;PMS5003;51124;53.394;-6.294;2023-04-12T09:43:43;4;4;
64697;PMS5003;51124;53.394;-6.294;2023-04-12T09:46:12;4;4;
64697;PMS5003;51124;53.394;-6.294;2023-04-12T09:48:40;3;3;
64697;PMS5003;51124;53.394;-6.294;2023-04-12T09:51:13;2;2;
64697;PMS5003;51124;53.394;-6.294;2023-04-12T09:53:47;6;4;
64697;PMS5003;51124;53.394;-6.294;2023-04-12T09:56:17;6;5;
64697;PMS5003;51124;53.394;-6.294;2023-04-12T09:58:46;4;4;
64697;PMS5003;51124;53.394;-6.294;2023-04-12T10:01:15;3;3;
64697;PMS5003;51124;53.394;-6.294;2023-04-12T10:03:43;4;4;
64697;PMS5003;51124;53.394;-6.294;2023-04-12T10:06:11;3;3;
64697;PMS5003;51124;53.394;-6.294;2023-04-12T10:08:40;5;4;
64697;PMS5003;51124;53.394;-6.294;2023-04-12T10:11:09;6;4;
64697;PMS5003;51124;53.394;-6.294;2023-04-12T10:13:37;5;5;
64697;PMS5003;51124;53.394;-6.294;2023-04-12T10:16:07;5;5;
64697;PMS5003;51124;53.394;-6.294;2023-04-12T10:18:35;4;4;
64697;PMS5003;51124;53.394;-6.294;2023-04-12T10:21:05;4;4;
64697;PMS5003;51124;53.394;-6.294;2023-04-12T10:23:33;4;4;
64697;PMS5003;51124;53.394;-6.294;2023-04-12T10:26:03;6;5;
64697;PMS5003;51124;53.394;-6.294;2023-04-12T10:28:31;3;3;
64697;PMS5003;51124;53.394;-6.294;2023-04-12T10:30:59;2;2;
64697;PMS5003;51124;53.394;-6.294;2023-04-12T10:33:33;3;3;
64697;PMS5003;51124;53.394;-6.294;2023-04-12T10:36:06;3;3;
64697;PMS5003;51124;53.394;-6.294;2023-04-12T10:38:43;3;3;
64697;PMS5003;51124;53.394;-6.294;2023-04-12T10:41:18;2;2;
64697;PMS5003;51124;53.394;-6.294;2023-04-12T10:43:36;3;3;
64697;PMS5003;51124;53.394;-6.294;2023-04-12T10:46:04;4;2;
64697;PMS5003;51124;53.394;-6.294;2023-04-12T10:48:33;5;5;
64697;PMS5003;51124;53.394;-6.294;2023-04-12T10:51:18;4;4;
64697;PMS5003;51124;53.394;-6.294;2023-04-12T10:53:27;6;4;
64697;PMS5003;51124;53.394;-6.294;2023-04-12T10:55:55;5;4;
64697;PMS5003;51124;53.394;-6.294;2023-04-12T10:58:53;4;4;
64697;PMS5003;51124;53.394;-6.294;2023-04-12T11:01:23;4;4;
64697;PMS5003;51124;53.394;-6.294;2023-04-12T11:03:21;3;3;
64697;PMS5003;51124;53.394;-6.294;2023-04-12T11:05:57;3;3;
64697;PMS5003;51124;53.394;-6.294;2023-04-12T11:08:16;3;3;
64697;PMS5003;51124;53.394;-6.294;2023-04-12T11:10:45;6;5;
64697;PMS5003;51124;53.394;-6.294;2023-04-12T11:13:15;3;3;
64697;PMS5003;51124;53.394;-6.294;2023-04-12T11:15:43;3;3;
64697;PMS5003;51124;53.394;-6.294;2023-04-12T11:18:10;4;4;
64697;PMS5003;51124;53.394;-6.294;2023-04-12T11:20:38;4;3;
64697;PMS5003;51124;53.394;-6.294;2023-04-12T11:23:05;4;4;
64697;PMS5003;51124;53.394;-6.294;2023-04-12T11:25:34;4;4;
64697;PMS5003;51124;53.394;-6.294;2023-04-12T11:28:02;4;4;
64697;PMS5003;51124;53.394;-6.294;2023-04-12T11:30:29;6;5;
64697;PMS5003;51124;53.394;-6.294;2023-04-12T11:32:56;1;1;
64697;PMS5003;51124;53.394;-6.294;2023-04-12T11:35:26;2;2;
64697;PMS5003;51124;53.394;-6.294;2023-04-12T11:37:54;4;4;
64697;PMS5003;51124;53.394;-6.294;2023-04-12T11:40:22;3;3;
64697;PMS5003;51124;53.394;-6.294;2023-04-12T11:42:49;4;3;
64697;PMS5003;51124;53.394;-6.294;2023-04-12T11:45:18;4;4;
64697;PMS5003;51124;53.394;-6.294;2023-04-12T11:47:45;3;3;
64697;PMS5003;51124;53.394;-6.294;2023-04-12T11:50:13;3;3;
64697;PMS5003;51124;53.394;-6.294;2023-04-12T11:52:44;4;1;
64697;PMS5003;51124;53.394;-6.294;2023-04-12T11:55:11;2;2;
64697;PMS5003;51124;53.394;-6.294;2023-04-12T11:57:41;4;3;
64697;PMS5003;51124;53.394;-6.294;2023-04-12T12:00:16;4;3;
64697;PMS5003;51124;53.394;-6.294;2023-04-12T12:02:47;4;3;
64697;PMS5003;51124;53.394;-6.294;2023-04-12T12:05:14;3;3;
64697;PMS5003;51124;53.394;-6.294;2023-04-12T12:07:43;3;3;
64697;PMS5003;51124;53.394;-6.294;2023-04-12T12:10:11;3;3;
64697;PMS5003;51124;53.394;-6.294;2023-04-12T12:12:41;2;2;
64697;PMS5003;51124;53.394;-6.294;2023-04-12T12:15:09;4;4;
64697;PMS5003;51124;53.394;-6.294;2023-04-12T12:17:49;4;4;
64697;PMS5003;51124;53.394;-6.294;2023-04-12T12:20:18;6;4;
64697;PMS5003;51124;53.394;-6.294;2023-04-12T12:22:38;6;4;
64697;PMS5003;51124;53.394;-6.294;2023-04-12T12:25:02;3;3;
64697;PMS5003;51124;53.394;-6.294;2023-04-12T12:27:32;2;2;
64697;PMS5003;51124;53.394;-6.294;2023-04-12T12:30:01;3;3;
64697;PMS5003;51124;53.394;-6.294;2023-04-12T12:32:31;3;3;
64697;PMS5003;51124;53.394;-6.294;2023-04-12T12:35:01;5;4;
64697;PMS5003;51124;53.394;-6.294;2023-04-12T12:37:33;3;3;
64697;PMS5003;51124;53.394;-6.294;2023-04-12T12:40:02;2;2;
64697;PMS5003;51124;53.394;-6.294;2023-04-12T12:42:32;3;3;
64697;PMS5003;51124;53.394;-6.294;2023-04-12T12:45:00;2;2;
64697;PMS5003;51124;53.394;-6.294;2023-04-12T12:47:27;2;2;
64697;PMS5003;51124;53.394;-6.294;2023-04-12T12:49:55;4;4;
64697;PMS5003;51124;53.394;-6.294;2023-04-12T12:52:22;4;4;
64697;PMS5003;51124;53.394;-6.294;2023-04-12T12:57:11;1;1;
64697;PMS5003;51124;53.394;-6.294;2023-04-12T12:59:37;0;0;
64697;PMS5003;51124;53.394;-6.294;2023-04-12T13:02:02;0;0;
64697;PMS5003;51124;53.394;-6.294;2023-04-12T13:04:28;1;1;
64697;PMS5003;51124;53.394;-6.294;2023-04-12T13:06:53;1;1;
64697;PMS5003;51124;53.394;-6.294;2023-04-12T13:09:19;3;1;
64697;PMS5003;51124;53.394;-6.294;2023-04-12T13:11:44;2;1;
64697;PMS5003;51124;53.394;-6.294;2023-04-12T13:14:10;0;0;
64697;PMS5003;51124;53.394;-6.294;2023-04-12T13:16:35;0;0;
64697;PMS5003;51124;53.394;-6.294;2023-04-12T13:19:00;0;0;
64697;PMS5003;51124;53.394;-6.294;2023-04-12T13:21:26;1;0;
64697;PMS5003;51124;53.394;-6.294;2023-04-12T13:23:51;2;1;
64697;PMS5003;51124;53.394;-6.294;2023-04-12T13:26:16;0;0;
64697;PMS5003;51124;53.394;-6.294;2023-04-12T13:28:42;0;0;
64697;PMS5003;51124;53.394;-6.294;2023-04-12T13:31:07;2;1;
64697;PMS5003;51124;53.394;-6.294;2023-04-12T13:33:33;2;1;
64697;PMS5003;51124;53.394;-6.294;2023-04-12T13:35:58;2;1;
64697;PMS5003;51124;53.394;-6.294;2023-04-12T13:38:24;0;0;
64697;PMS5003;51124;53.394;-6.294;2023-04-12T13:40:49;2;0;
64697;PMS5003;51124;53.394;-6.294;2023-04-12T13:43:14;2;1;
64697;PMS5003;51124;53.394;-6.294;2023-04-12T13:45:40;1;1;
64697;PMS5003;51124;53.394;-6.294;2023-04-12T13:48:06;1;1;
64697;PMS5003;51124;53.394;-6.294;2023-04-12T13:50:32;2;2;
64697;PMS5003;51124;53.394;-6.294;2023-04-12T13:52:57;2;1;
64697;PMS5003;51124;53.394;-6.294;2023-04-12T13:55:23;1;1;
64697;PMS5003;51124;53.394;-6.294;2023-04-12T13:57:48;2;2;
64697;PMS5003;51124;53.394;-6.294;2023-04-12T14:00:14;2;1;
64697;PMS5003;51124;53.394;-6.294;2023-04-12T14:02:41;0;0;
64697;PMS5003;51124;53.394;-6.294;2023-04-12T14:05:06;0;0;
64697;PMS5003;51124;53.394;-6.294;2023-04-12T14:07:32;1;1;
64697;PMS5003;51124;53.394;-6.294;2023-04-12T14:09:58;0;0;
64697;PMS5003;51124;53.394;-6.294;2023-04-12T14:12:23;0;0;
64697;PMS5003;51124;53.394;-6.294;2023-04-12T14:14:48;0;0;
64697;PMS5003;51124;53.394;-6.294;2023-04-12T14:17:14;0;0;
64697;PMS5003;51124;53.394;-6.294;2023-04-12T14:19:40;1;1;
64697;PMS5003;51124;53.394;-6.294;2023-04-12T14:22:06;0;0;
64697;PMS5003;51124;53.394;-6.294;2023-04-12T14:24:33;0;0;
64697;PMS5003;51124;53.394;-6.294;2023-04-12T14:27:00;1;1;
64697;PMS5003;51124;53.394;-6.294;2023-04-12T14:29:26;0;0;
64697;PMS5003;51124;53.394;-6.294;2023-04-12T14:31:52;0;0;
64697;PMS5003;51124;53.394;-6.294;2023-04-12T14:34:17;1;1;
64697;PMS5003;51124;53.394;-6.294;2023-04-12T14:36:43;2;1;
64697;PMS5003;51124;53.394;-6.294;2023-04-12T14:39:10;1;0;
64697;PMS5003;51124;53.394;-6.294;2023-04-12T14:41:36;1;1;
64697;PMS5003;51124;53.394;-6.294;2023-04-12T14:44:03;1;0;
64697;PMS5003;51124;53.394;-6.294;2023-04-12T14:46:29;2;1;
64697;PMS5003;51124;53.394;-6.294;2023-04-12T14:48:54;0;0;
64697;PMS5003;51124;53.394;-6.294;2023-04-12T14:51:22;0;0;
64697;PMS5003;51124;53.394;-6.294;2023-04-12T14:53:48;0;0;
64697;PMS5003;51124;53.394;-6.294;2023-04-12T14:56:18;0;0;
64697;PMS5003;51124;53.394;-6.294;2023-04-12T14:58:45;0;0;
64697;PMS5003;51124;53.394;-6.294;2023-04-12T15:01:10;1;1;
64697;PMS5003;51124;53.394;-6.294;2023-04-12T15:03:36;1;1;
64697;PMS5003;51124;53.394;-6.294;2023-04-12T15:06:03;0;0;
64697;PMS5003;51124;53.394;-6.294;2023-04-12T15:08:31;0;0;
64697;PMS5003;51124;53.394;-6.294;2023-04-12T15:10:57;0;0;
64697;PMS5003;51124;53.394;-6.294;2023-04-12T15:13:23;0;0;
64697;PMS5003;51124;53.394;-6.294;2023-04-12T15:15:48;0;0;
64697;PMS5003;51124;53.394;-6.294;2023-04-12T15:18:14;1;1;
64697;PMS5003;51124;53.394;-6.294;2023-04-12T15:20:39;1;1;
64697;PMS5003;51124;53.394;-6.294;2023-04-12T15:23:05;1;1;
64697;PMS5003;51124;53.394;-6.294;2023-04-12T15:25:32;2;2;
64697;PMS5003;51124;53.394;-6.294;2023-04-12T15:25:57;1;1;
64697;PMS5003;51124;53.394;-6.294;2023-04-12T15:28:22;0;0;
64697;PMS5003;51124;53.394;-6.294;2023-04-12T15:30:48;0;0;
64697;PMS5003;51124;53.394;-6.294;2023-04-12T15:33:13;0;0;
64697;PMS5003;51124;53.394;-6.294;2023-04-12T15:35:39;1;1;
64697;PMS5003;51124;53.394;-6.294;2023-04-12T15:38:04;1;1;
64697;PMS5003;51124;53.394;-6.294;2023-04-12T15:40:30;0;0;
64697;PMS5003;51124;53.394;-6.294;2023-04-12T15:42:55;0;0;
64697;PMS5003;51124;53.394;-6.294;2023-04-12T15:45:20;0;0;
64697;PMS5003;51124;53.394;-6.294;2023-04-12T15:47:46;0;0;
64697;PMS5003;51124;53.394;-6.294;2023-04-12T15:50:11;0;0;
64697;PMS5003;51124;53.394;-6.294;2023-04-12T15:52:37;0;0;
64697;PMS5003;51124;53.394;-6.294;2023-04-12T15:55:02;0;0;
64697;PMS5003;51124;53.394;-6.294;2023-04-12T15:57:28;0;0;
64697;PMS5003;51124;53.394;-6.294;2023-04-12T15:59:53;0;0;
64697;PMS5003;51124;53.394;-6.294;2023-04-12T16:02:19;1;1;
64697;PMS5003;51124;53.394;-6.294;2023-04-12T16:04:45;1;1;
64697;PMS5003;51124;53.394;-6.294;2023-04-12T16:07:10;0;0;
64697;PMS5003;51124;53.394;-6.294;2023-04-12T16:09:37;1;1;
64697;PMS5003;51124;53.394;-6.294;2023-04-12T16:12:03;0;0;
64697;PMS5003;51124;53.394;-6.294;2023-04-12T16:14:28;1;1;
64697;PMS5003;51124;53.394;-6.294;2023-04-12T16:16:54;0;0;
64697;PMS5003;51124;53.394;-6.294;2023-04-12T16:19:19;1;1;
64697;PMS5003;51124;53.394;-6.294;2023-04-12T16:21:44;0;0;
64697;PMS5003;51124;53.394;-6.294;2023-04-12T16:24:10;0;0;
64697;PMS5003;51124;53.394;-6.294;2023-04-12T16:26:35;1;1;
64697;PMS5003;51124;53.394;-6.294;2023-04-12T16:29:01;1;0;
64697;PMS5003;51124;53.394;-6.294;2023-04-12T16:31:27;1;1;
64697;PMS5003;51124;53.394;-6.294;2023-04-12T16:33:52;1;1;